Wilmington, NC

6:24 PM EDT on August 31, 2015 (GMT -0400)
Woodlawn | | Change Station
CLOSE
Current Station
Personal Weather Station
Location: Wilmington, NC
Elevation: 30 ft
Nearby Weather Stations

Elev 30 ft 34.21 °N, 77.94 °W | Updated 28 seconds ago

Light Rain
Light Rain Mist
75.2 °F
Feels Like 73 °F
N
0.4
Wind Variable Wind from NE
Gusts 2.5 mph

Today
High -- | Low -- °F
--% Chance of Precip.
Yesterday
High -- | Low -- °F
Precip. -- in
6:44 AM 7:39 PM
Waning Gibbous, 93% visible
Pressure 30.04 in
Visibility 3.0 miles
Clouds Scattered Clouds 600 ft
Mostly Cloudy 1100 ft
Overcast 3900 ft
Heat Index 73 °F
Dew Point 74 °F
Humidity 97%
Rainfall in
Snow Depth Not available.
UV 1.0 out of 12
Pollen 2.90 out of 12
Air Quality Not available.
Flu Activity Not available.
SPECI KILM 312221Z 00000KT 3SM R35/3000VP6000FT -RA BR SCT006 BKN011 OVC039 25/24 A3004 RMK AO2 P0007 T02500239 $
Pressure 30.04 in
Visibility 3.0 miles
Clouds Scattered Clouds 600 ft
Mostly Cloudy 1100 ft
Overcast 3900 ft
Heat Index 73 °F
Dew Point 74 °F
Humidity 97%
Rainfall in
Snow Depth Not available.
UV 1.0 out of 12
Pollen 2.90 out of 12
Air Quality Not available.
Flu Activity Not available.
SPECI KILM 312221Z 00000KT 3SM R35/3000VP6000FT -RA BR SCT006 BKN011 OVC039 25/24 A3004 RMK AO2 P0007 T02500239 $

10-Day Weather Forecast

×

Almanac

Astronomy

Aug. 31, 2015 Rise Set
Actual Time
Civil Twilight
Nautical Twilight
Astronomical Twilight
Moon
Length of Visible Light
Length of Day
Tomorrow will be .
, % of the Moon is Illuminated

Today's Extremes

State Highs State Lows

Community

WunderPhotos

Upload Photos

1,851,390 photos uploaded!

WunderBlogs® & News

Nearby

Air Quality

  Air Quality AQ Index Pollutant
Not available.

Snow Depth

Station Depth Elevation

Earthquake Activity

City Distance Mag. Time & Date
Minimum magnitude displayed is 2.5.

Coastal Water Temperatures

Place Temperature

Stations

Nearby Weather Stations

Station Location Temp. Windchill Dew Point Humidity Wind Precip. Elev Updated Type